Santa Monica, California
Current Conditions -  °F | °C
As of 5:51 AM on Friday 19 Dec 2014 (Local Time) from KSMO Reporting Station
Clear Clear  
Wind Chill: 10°   Ceiling: Unl
Heat Index: 10°   Visibility: 10mi
Dew Point:   Wind: 3mph
Humidity: 77%   Direction: 320°NW
Pressure: 30.23"   Gusts: NA
Location:  34.01°N, 118.49°W
Report Text: KSMO 191351Z AUTO 32003KT 10SM CLR 10/06 A3023 RMK AO2 SLP235 T01000061
Loading
Personal Weather Stations






























Interactive Weather Map New forecast layout! Learn more

10-Day Weather Forecast

Advertisements
Track Severe Weather on mobile